Time;durP1;ratioP1;P1;durP2;ratioP2;P2;SDS_P1;SDS_P2;PMS_P1;PMS_P2;Temp;Humidity;BMP_temperature;BMP_pressure;BME280_temperature;BME280_humidity;BME280_pressure;Samples;Min_cycle;Max_cycle;Signal;HPM_P1;HPM_P2
2022/04/01 00:00:37;;;;;;;16.60;14.20;;;6.00;99.90;;;;;;5093402;28;20039;-66
2022/04/01 00:03:04;;;;;;;16.98;14.10;;;5.90;99.90;;;;;;5092827;28;20040;-63
2022/04/01 00:05:29;;;;;;;17.40;15.18;;;6.00;99.90;;;;;;5092617;28;20054;-65
2022/04/01 00:07:55;;;;;;;16.65;13.50;;;6.00;99.90;;;;;;5093287;28;20024;-68
2022/04/01 00:10:21;;;;;;;16.08;14.38;;;6.00;99.90;;;;;;5092872;28;20085;-71
2022/04/01 00:12:46;;;;;;;16.33;14.25;;;6.00;99.90;;;;;;5093210;28;20047;-65
2022/04/01 00:15:13;;;;;;;16.35;13.98;;;6.00;99.90;;;;;;5091891;28;20066;-68
2022/04/01 00:17:41;;;;;;;17.23;15.07;;;5.90;99.90;;;;;;5093378;28;20028;-68
2022/04/01 00:20:07;;;;;;;17.95;15.60;;;5.80;99.90;;;;;;5091800;28;20040;-75
2022/04/01 00:22:32;;;;;;;16.08;14.00;;;5.70;99.90;;;;;;5091957;28;20084;-70
2022/04/01 00:24:58;;;;;;;17.95;14.27;;;5.80;99.90;;;;;;5092872;28;20025;-70
2022/04/01 00:27:24;;;;;;;17.15;14.88;;;5.80;99.90;;;;;;5093010;28;20020;-64
2022/04/01 00:29:50;;;;;;;17.10;14.20;;;5.70;99.90;;;;;;5093144;28;20027;-67
2022/04/01 00:32:16;;;;;;;14.63;12.20;;;5.80;99.90;;;;;;5091279;28;20039;-63
2022/04/01 00:34:41;;;;;;;14.95;13.30;;;5.70;99.90;;;;;;5091564;28;20083;-71
2022/04/01 00:37:07;;;;;;;15.15;12.93;;;5.70;99.90;;;;;;5092387;28;20051;-72
2022/04/01 00:39:33;;;;;;;14.30;12.75;;;5.60;99.90;;;;;;5092889;28;20027;-64
2022/04/01 00:42:01;;;;;;;15.55;13.55;;;5.70;99.90;;;;;;5087857;28;20067;-65
2022/04/01 00:44:29;;;;;;;14.00;12.52;;;5.80;99.90;;;;;;5053975;28;20033;-63
2022/04/01 00:47:04;;;;;;;15.63;13.57;;;5.80;99.90;;;;;;5054544;28;20025;-66
2022/04/01 00:49:31;;;;;;;14.95;13.10;;;5.60;99.90;;;;;;5054901;28;20036;-65
2022/04/01 00:52:00;;;;;;;16.73;13.90;;;5.70;99.90;;;;;;5057606;28;20033;-65
2022/04/01 00:54:26;;;;;;;16.65;14.30;;;5.60;99.90;;;;;;5075635;28;20028;-69
2022/04/01 00:56:52;;;;;;;15.35;13.27;;;5.60;99.90;;;;;;5076016;28;20086;-68
2022/04/01 00:59:18;;;;;;;15.18;13.10;;;5.70;99.90;;;;;;5075177;28;20400;-64
2022/04/01 01:01:44;;;;;;;18.88;13.55;;;5.60;99.90;;;;;;5074545;28;20089;-67
2022/04/01 01:04:13;;;;;;;14.63;12.10;;;5.70;99.90;;;;;;5055292;28;20029;-65
2022/04/01 01:06:43;;;;;;;14.32;12.82;;;5.70;99.90;;;;;;5037527;28;20036;-73
2022/04/01 01:09:10;;;;;;;15.77;13.93;;;5.80;99.90;;;;;;5055145;28;20394;-73
2022/04/01 01:11:36;;;;;;;15.20;12.55;;;5.70;99.90;;;;;;5038019;28;20040;-63
2022/04/01 01:14:09;;;;;;;13.82;12.43;;;5.70;99.90;;;;;;5038643;28;20029;-63
2022/04/01 01:16:41;;;;;;;13.27;11.48;;;5.50;99.90;;;;;;5056693;28;20383;-64
2022/04/01 01:19:08;;;;;;;12.32;11.02;;;5.50;99.90;;;;;;5038318;28;20029;-64
2022/04/01 01:21:34;;;;;;;15.35;13.23;;;5.50;99.90;;;;;;5055547;28;20075;-65
2022/04/01 01:24:05;;;;;;;13.60;11.63;;;5.50;99.90;;;;;;5056014;28;20052;-64
2022/04/01 01:26:32;;;;;;;13.82;11.55;;;5.50;99.90;;;;;;5055348;28;20073;-65
2022/04/01 01:28:59;;;;;;;13.55;11.68;;;5.50;99.90;;;;;;5055713;28;20087;-65
2022/04/01 01:31:25;;;;;;;12.38;11.00;;;5.60;99.90;;;;;;5055658;28;20024;-63
2022/04/01 01:33:53;;;;;;;13.90;12.27;;;5.60;99.90;;;;;;5038471;28;20500;-65
2022/04/01 01:36:19;;;;;;;12.68;11.35;;;5.60;99.90;;;;;;5055323;28;20124;-64
2022/04/01 01:38:45;;;;;;;12.90;11.60;;;5.60;99.90;;;;;;5038598;28;20540;-66
2022/04/01 01:41:11;;;;;;;14.18;12.48;;;5.50;99.90;;;;;;5055263;28;20483;-73
2022/04/01 01:43:38;;;;;;;13.77;12.43;;;5.60;99.90;;;;;;5056304;28;20112;-64
2022/04/01 01:46:04;;;;;;;14.82;11.60;;;5.80;99.90;;;;;;5038551;28;20028;-66
2022/04/01 01:48:30;;;;;;;13.27;11.80;;;5.80;99.90;;;;;;5055645;28;20021;-68
2022/04/01 01:56:24;;;;;;;12.88;11.52;;;5.40;99.90;;;;;;5055518;28;20398;-66
2022/04/01 01:58:50;;;;;;;15.45;12.10;;;5.50;99.90;;;;;;5038189;28;20025;-64
2022/04/01 02:01:16;;;;;;;13.43;12.02;;;5.50;99.90;;;;;;5055342;28;20029;-65
2022/04/01 02:03:42;;;;;;;13.55;11.88;;;5.60;99.90;;;;;;5054954;28;20032;-67
2022/04/01 02:06:07;;;;;;;13.32;11.90;;;5.40;99.90;;;;;;5054586;28;20489;-63
2022/04/01 02:08:33;;;;;;;14.50;12.98;;;5.50;99.90;;;;;;5036443;28;20489;-63
2022/04/01 02:10:59;;;;;;;14.82;13.23;;;5.50;99.90;;;;;;5054301;28;20033;-65
2022/04/01 02:13:27;;;;;;;12.77;11.43;;;5.30;99.90;;;;;;5053895;28;20394;-63
2022/04/01 02:15:54;;;;;;;13.10;11.48;;;5.30;99.90;;;;;;5054352;28;20071;-65
2022/04/01 02:18:23;;;;;;;13.00;11.50;;;5.30;99.90;;;;;;5053487;28;20434;-63
2022/04/01 02:20:50;;;;;;;13.13;11.80;;;5.40;99.90;;;;;;5054143;28;20107;-64
2022/04/01 02:23:16;;;;;;;14.00;11.43;;;5.40;99.90;;;;;;5053668;28;20032;-65
2022/04/01 02:25:43;;;;;;;13.02;11.63;;;5.50;99.90;;;;;;5054226;28;20025;-63
2022/04/01 02:28:10;;;;;;;12.45;11.15;;;5.50;99.90;;;;;;5054159;28;20024;-66
2022/04/01 02:30:36;;;;;;;12.25;10.77;;;5.50;99.90;;;;;;5052626;28;20481;-64
2022/04/01 02:33:02;;;;;;;11.60;10.40;;;5.60;99.90;;;;;;5053268;28;20033;-66
2022/04/01 02:35:29;;;;;;;12.20;10.90;;;5.60;99.90;;;;;;5053546;28;20032;-63
2022/04/01 02:37:55;;;;;;;11.13;9.95;;;5.50;99.90;;;;;;5054082;28;20083;-65
2022/04/01 02:40:22;;;;;;;12.65;11.13;;;5.40;99.90;;;;;;5035369;28;20033;-64
2022/04/01 02:42:49;;;;;;;11.55;10.43;;;5.30;99.90;;;;;;5054826;28;20513;-65
2022/04/01 02:45:15;;;;;;;12.02;10.45;;;5.30;99.90;;;;;;5073647;28;20025;-76
2022/04/01 02:47:40;;;;;;;11.88;10.68;;;5.30;99.90;;;;;;5073848;28;20020;-65
2022/04/01 02:50:07;;;;;;;11.55;10.35;;;5.30;99.90;;;;;;5072214;28;20059;-67
2022/04/01 02:52:33;;;;;;;10.93;9.82;;;5.50;99.90;;;;;;5071951;28;20119;-65
2022/04/01 02:54:59;;;;;;;11.93;10.68;;;5.40;99.90;;;;;;5073587;28;20370;-66
2022/04/01 02:57:24;;;;;;;11.95;10.52;;;5.40;99.90;;;;;;5072038;28;20031;-67
2022/04/01 02:59:50;;;;;;;13.13;11.73;;;5.30;99.90;;;;;;5073599;28;20029;-63
2022/04/01 03:02:16;;;;;;;11.52;10.32;;;5.30;99.90;;;;;;5072004;28;20397;-72
2022/04/01 03:04:42;;;;;;;12.27;11.07;;;5.30;99.90;;;;;;5072160;28;20078;-65
2022/04/01 03:07:08;;;;;;;12.63;11.25;;;5.30;99.90;;;;;;5072328;28;20466;-63
2022/04/01 03:09:35;;;;;;;12.02;10.80;;;5.30;99.90;;;;;;5072774;28;20115;-65
2022/04/01 03:12:01;;;;;;;11.45;10.25;;;5.30;99.90;;;;;;5072654;28;20044;-63
2022/04/01 03:14:27;;;;;;;10.98;9.82;;;5.40;99.90;;;;;;5072771;28;20021;-65
2022/04/01 03:16:53;;;;;;;12.20;11.00;;;5.40;99.90;;;;;;5072290;28;20078;-64
2022/04/01 03:19:19;;;;;;;13.95;10.32;;;5.40;99.90;;;;;;5071455;28;20036;-66
2022/04/01 03:21:45;;;;;;;11.88;10.32;;;5.40;99.90;;;;;;5073132;28;20024;-64
2022/04/01 03:24:11;;;;;;;10.40;9.35;;;5.40;99.90;;;;;;5073034;28;20028;-63
2022/04/01 03:26:38;;;;;;;13.38;9.70;;;5.30;99.90;;;;;;5072030;28;20165;-67
2022/04/01 03:29:06;;;;;;;14.00;9.65;;;5.40;99.90;;;;;;5073011;28;20028;-67
2022/04/01 03:31:33;;;;;;;10.77;9.52;;;5.40;99.90;;;;;;5073587;28;20020;-65
2022/04/01 03:33:59;;;;;;;12.13;10.80;;;5.30;99.90;;;;;;5072610;28;20485;-64
2022/04/01 03:36:25;;;;;;;11.60;9.10;;;5.30;99.90;;;;;;5072777;28;20107;-64
2022/04/01 03:38:51;;;;;;;10.93;9.82;;;5.20;99.90;;;;;;5072824;28;20056;-67
2022/04/01 03:41:19;;;;;;;12.50;8.93;;;5.30;99.90;;;;;;5073061;28;20033;-71
2022/04/01 03:43:45;;;;;;;10.45;9.35;;;5.10;99.90;;;;;;5073693;28;20397;-67
2022/04/01 03:46:18;;;;;;;9.73;8.65;;;5.20;99.90;;;;;;5071901;28;20470;-65
2022/04/01 03:48:47;;;;;;;10.13;9.05;;;5.20;99.90;;;;;;5073001;28;20025;-63
2022/04/01 03:51:18;;;;;;;10.30;8.55;;;5.20;99.90;;;;;;5073710;28;20078;-65
2022/04/01 03:54:00;;;;;;;9.43;8.52;;;5.30;99.90;;;;;;5073372;28;20094;-65
2022/04/01 03:56:32;;;;;;;9.65;8.65;;;5.30;99.90;;;;;;5072871;28;20033;-63
2022/04/01 03:59:06;;;;;;;8.45;7.60;;;5.00;99.90;;;;;;5072658;28;20029;-65
2022/04/01 04:01:34;;;;;;;9.98;8.55;;;5.00;99.90;;;;;;5073481;28;20099;-64
2022/04/01 04:04:00;;;;;;;10.18;8.02;;;4.90;99.90;;;;;;5072927;28;20028;-65
2022/04/01 04:06:26;;;;;;;7.68;6.97;;;5.00;99.90;;;;;;5070901;28;20017;-64
2022/04/01 04:09:06;;;;;;;8.38;7.57;;;5.10;99.90;;;;;;5072498;28;20027;-64
2022/04/01 04:11:33;;;;;;;9.45;8.48;;;5.20;99.90;;;;;;5071722;28;20048;-63
2022/04/01 04:14:03;;;;;;;8.77;6.82;;;5.20;99.90;;;;;;5072682;28;20540;-63
2022/04/01 04:16:36;;;;;;;8.18;7.35;;;5.20;99.90;;;;;;5072515;28;20353;-63
2022/04/01 04:19:07;;;;;;;8.68;7.28;;;5.20;99.90;;;;;;5071362;28;20025;-65
2022/04/01 04:21:39;;;;;;;9.93;7.93;;;5.20;99.90;;;;;;5070609;28;20082;-64
2022/04/01 04:24:13;;;;;;;7.85;7.13;;;5.30;99.90;;;;;;5072423;28;20290;-63
2022/04/01 04:26:47;;;;;;;8.70;7.50;;;5.20;99.90;;;;;;5075593;28;20553;-63
2022/04/01 04:29:16;;;;;;;9.05;8.15;;;5.20;99.90;;;;;;5076270;28;20525;-65
2022/04/01 04:32:16;;;;;;;8.70;7.82;;;5.20;99.90;;;;;;5074467;28;20024;-65
2022/04/01 04:34:44;;;;;;;9.23;7.32;;;5.20;99.90;;;;;;5068124;28;20039;-64
2022/04/01 04:37:13;;;;;;;11.45;7.82;;;5.20;99.90;;;;;;5074838;28;20043;-64
2022/04/01 04:39:39;;;;;;;9.85;7.60;;;5.00;99.90;;;;;;5075527;28;20046;-64
2022/04/01 04:42:06;;;;;;;11.05;8.85;;;5.00;99.90;;;;;;5070382;28;20431;-64
2022/04/01 04:44:32;;;;;;;9.95;7.78;;;5.10;99.90;;;;;;5055788;28;20389;-63
2022/04/01 04:47:05;;;;;;;12.50;7.93;;;5.20;99.90;;;;;;5037766;28;20025;-63
2022/04/01 04:49:31;;;;;;;9.45;7.85;;;5.20;99.90;;;;;;5055435;28;20033;-64
2022/04/01 04:51:58;;;;;;;9.40;8.35;;;5.20;99.90;;;;;;5055937;28;20420;-62
2022/04/01 04:54:25;;;;;;;9.35;8.02;;;5.10;99.90;;;;;;5037710;28;20453;-65
2022/04/01 04:56:53;;;;;;;9.73;8.40;;;5.10;99.90;;;;;;5038489;28;20067;-65
2022/04/01 04:59:21;;;;;;;11.13;7.60;;;5.10;99.90;;;;;;5056190;28;20029;-64
2022/04/01 05:02:08;;;;;;;9.95;8.18;;;5.10;99.90;;;;;;5037639;28;20115;-65
2022/04/01 05:04:40;;;;;;;10.65;8.00;;;4.90;99.90;;;;;;5055876;28;20107;-65
2022/04/01 05:07:19;;;;;;;13.27;9.00;;;4.70;99.90;;;;;;5037918;28;20029;-69
2022/04/01 05:10:03;;;;;;;10.77;8.20;;;4.80;99.90;;;;;;5037376;28;20033;-65
2022/04/01 05:12:39;;;;;;;12.27;8.80;;;4.90;99.90;;;;;;5054920;28;20116;-64
2022/04/01 05:15:11;;;;;;;11.93;8.45;;;4.90;99.90;;;;;;5037396;28;20374;-64
2022/04/01 05:17:42;;;;;;;;;;;5.00;99.90;;;;;;5055109;28;20025;-68
2022/04/01 05:20:16;;;;;;;9.93;8.50;;;4.90;99.90;;;;;;5055663;28;19906;-68
2022/04/01 05:22:47;;;;;;;10.90;8.65;;;5.00;99.90;;;;;;5054837;28;20036;-65
2022/04/01 05:25:20;;;;;;;13.35;8.25;;;4.90;99.90;;;;;;5055491;28;20079;-64
2022/04/01 05:27:58;;;;;;;10.32;7.32;;;4.80;99.90;;;;;;5037139;28;20033;-63
2022/04/01 05:30:28;;;;;;;11.73;8.80;;;4.90;99.90;;;;;;5037606;28;20033;-64
2022/04/01 05:33:15;;;;;;;11.67;8.43;;;4.80;99.90;;;;;;5038072;28;20029;-65
2022/04/01 05:35:43;;;;;;;10.55;7.88;;;4.90;99.90;;;;;;5036552;28;20466;-65
2022/04/01 05:38:09;;;;;;;14.90;8.60;;;4.80;99.90;;;;;;5055685;28;20060;-65
2022/04/01 05:40:37;;;;;;;9.63;7.55;;;5.00;99.90;;;;;;5055809;28;20033;-63
2022/04/01 05:43:07;;;;;;;14.27;7.68;;;4.80;99.90;;;;;;5059857;28;20409;-68
2022/04/01 05:45:33;;;;;;;13.82;9.43;;;4.90;99.90;;;;;;5052670;28;20031;-65
2022/04/01 05:47:59;;;;;;;11.13;8.57;;;4.70;99.90;;;;;;5064374;28;20547;-66
2022/04/01 05:50:28;;;;;;;9.77;8.27;;;4.80;99.90;;;;;;5058243;28;20024;-68
2022/04/01 05:52:54;;;;;;;11.05;8.38;;;4.90;99.90;;;;;;5053968;28;20546;-65
2022/04/01 05:55:26;;;;;;;11.85;9.05;;;4.90;99.90;;;;;;5054777;28;20048;-65
2022/04/01 05:57:55;;;;;;;11.20;8.63;;;4.80;99.90;;;;;;5059509;28;20032;-64
2022/04/01 06:00:21;;;;;;;12.90;9.48;;;4.80;99.90;;;;;;5065876;28;20024;-64
2022/04/01 06:03:26;;;;;;;11.80;8.55;;;4.90;99.90;;;;;;5067318;28;20713;-65
2022/04/01 06:06:00;;;;;;;11.93;8.77;;;4.90;99.90;;;;;;5058204;28;20032;-64
2022/04/01 06:08:31;;;;;;;13.35;9.63;;;4.80;99.90;;;;;;5070368;28;20054;-64
2022/04/01 06:11:04;;;;;;;15.88;9.43;;;4.90;99.90;;;;;;5055866;28;20170;-64
2022/04/01 06:14:08;;;;;;;10.90;8.80;;;4.70;99.90;;;;;;5055526;28;20135;-65
2022/04/01 06:16:42;;;;;;;10.40;8.55;;;4.70;99.90;;;;;;5046912;28;20035;-66
2022/04/01 06:19:16;;;;;;;11.77;8.52;;;4.60;99.90;;;;;;5072095;28;20020;-64
2022/04/01 06:21:48;;;;;;;11.63;9.35;;;4.70;99.90;;;;;;5055395;28;20064;-65
2022/04/01 06:24:29;;;;;;;12.98;9.27;;;4.50;99.90;;;;;;5074335;28;20078;-65
2022/04/01 06:27:00;;;;;;;11.35;8.45;;;4.60;99.90;;;;;;5073578;28;20029;-64
2022/04/01 06:29:41;;;;;;;13.85;9.10;;;4.60;99.90;;;;;;5073945;28;20037;-67
2022/04/01 06:32:29;;;;;;;14.93;9.82;;;4.70;99.90;;;;;;5074453;28;20035;-65
2022/04/01 06:35:04;;;;;;;13.20;10.07;;;4.50;99.90;;;;;;5074814;28;20024;-67
2022/04/01 06:37:41;;;;;;;11.85;7.78;;;4.50;99.90;;;;;;5071590;28;20128;-69
2022/04/01 06:40:12;;;;;;;11.05;8.52;;;4.60;99.90;;;;;;5055024;28;20029;-65
2022/04/01 06:42:40;;;;;;;13.35;8.60;;;4.70;99.90;;;;;;5063978;28;20135;-64
2022/04/01 06:45:11;;;;;;;11.48;7.90;;;4.80;99.90;;;;;;5087952;28;20361;-66
2022/04/01 06:47:39;;;;;;;18.23;8.75;;;4.70;99.90;;;;;;5091622;28;20484;-65
2022/04/01 06:50:05;;;;;;;12.68;8.68;;;4.80;99.90;;;;;;5092103;28;20028;-65
2022/04/01 06:52:31;;;;;;;13.50;9.02;;;4.80;99.90;;;;;;5093289;28;20036;-66
2022/04/01 06:55:00;;;;;;;12.35;8.13;;;4.70;99.90;;;;;;5092454;28;20491;-66
2022/04/01 06:57:26;;;;;;;14.85;8.88;;;4.70;99.90;;;;;;5093650;28;20384;-65
2022/04/01 06:59:52;;;;;;;11.75;7.65;;;4.50;99.90;;;;;;5093729;28;20101;-65
2022/04/01 07:02:17;;;;;;;11.35;7.45;;;4.40;99.90;;;;;;5084624;28;20028;-66
2022/04/01 07:04:43;;;;;;;10.32;7.47;;;4.50;99.90;;;;;;5090819;28;20392;-64
2022/04/01 07:07:09;;;;;;;9.07;7.32;;;4.40;99.90;;;;;;5094082;28;20497;-66
2022/04/01 07:09:38;;;;;;;11.50;8.43;;;4.50;99.90;;;;;;5091237;28;20020;-65
2022/04/01 07:12:04;;;;;;;11.00;8.23;;;4.50;99.90;;;;;;5075406;28;20036;-67
2022/04/01 07:14:33;;;;;;;16.50;8.60;;;4.60;99.90;;;;;;5087174;28;20032;-74
2022/04/01 07:16:59;;;;;;;12.13;8.05;;;4.70;99.90;;;;;;5084919;28;20108;-66
2022/04/01 07:19:25;;;;;;;13.18;7.32;;;4.70;99.90;;;;;;5088839;28;20123;-67
2022/04/01 07:21:52;;;;;;;11.45;8.35;;;4.70;99.90;;;;;;5086578;28;20536;-66
2022/04/01 07:24:17;;;;;;;9.90;7.20;;;4.60;99.90;;;;;;5088134;28;20400;-68
2022/04/01 07:26:44;;;;;;;11.13;7.35;;;4.60;99.90;;;;;;5088163;28;20028;-66
2022/04/01 07:29:11;;;;;;;13.20;7.45;;;4.70;99.90;;;;;;5087684;28;20054;-66
2022/04/01 07:34:34;;;;;;;9.57;7.20;;;4.70;99.90;;;;;;5084844;28;20035;-65
2022/04/01 07:37:05;;;;;;;10.38;7.15;;;4.90;99.90;;;;;;5088014;28;20062;-67
2022/04/01 07:39:31;;;;;;;11.20;6.93;;;4.90;99.90;;;;;;5075103;28;20024;-71
2022/04/01 07:41:57;;;;;;;7.95;6.20;;;4.80;99.90;;;;;;5086459;28;20062;-67
2022/04/01 07:44:23;;;;;;;10.32;8.00;;;4.80;99.90;;;;;;5078988;28;20025;-70
2022/04/01 07:46:50;;;;;;;9.95;7.00;;;4.70;99.90;;;;;;5080286;28;20555;-68
2022/04/01 07:49:17;;;;;;;12.38;6.82;;;4.70;99.90;;;;;;5085420;28;20440;-65
2022/04/01 07:51:44;;;;;;;20.65;8.85;;;4.90;99.90;;;;;;5085742;28;20043;-67
2022/04/01 07:54:13;;;;;;;10.88;6.80;;;4.90;99.90;;;;;;5087598;28;20038;-64
2022/04/01 07:56:40;;;;;;;13.10;8.40;;;5.00;99.90;;;;;;5086184;28;20036;-65
2022/04/01 07:59:07;;;;;;;11.93;7.47;;;5.00;99.90;;;;;;5089930;28;20032;-67
2022/04/01 08:01:34;;;;;;;9.20;7.45;;;5.00;99.90;;;;;;5073626;28;20024;-64
2022/04/01 08:04:00;;;;;;;10.60;7.20;;;4.90;99.90;;;;;;5092122;28;20062;-65
2022/04/01 08:06:25;;;;;;;7.93;6.60;;;5.10;99.90;;;;;;5091016;28;20032;-67
2022/04/01 08:08:55;;;;;;;12.82;6.75;;;5.10;99.90;;;;;;5091054;28;20491;-67
2022/04/01 08:11:23;;;;;;;8.10;7.00;;;5.00;99.90;;;;;;5091545;28;20034;-67
2022/04/01 08:13:49;;;;;;;11.73;7.13;;;5.00;99.90;;;;;;5086960;28;20036;-70
2022/04/01 08:16:15;;;;;;;12.02;7.22;;;5.00;99.90;;;;;;5091925;28;20461;-65
2022/04/01 08:18:40;;;;;;;8.88;6.57;;;4.90;99.90;;;;;;5090903;28;20028;-68
2022/04/01 08:21:07;;;;;;;10.88;6.35;;;4.90;99.90;;;;;;5090599;28;20028;-65
2022/04/01 08:23:35;;;;;;;9.50;6.40;;;4.80;99.90;;;;;;5091697;28;20055;-66
2022/04/01 08:26:05;;;;;;;8.73;6.93;;;4.80;99.90;;;;;;5089811;28;20040;-71
2022/04/01 08:28:30;;;;;;;9.38;6.72;;;4.80;99.90;;;;;;5090735;28;20039;-69
2022/04/01 08:30:57;;;;;;;10.48;6.70;;;4.50;99.90;;;;;;5091663;28;20024;-66
2022/04/01 08:33:23;;;;;;;9.40;6.78;;;4.80;99.90;;;;;;5092225;28;20397;-66
2022/04/01 08:35:49;;;;;;;10.85;6.82;;;4.80;99.90;;;;;;5094931;28;20051;-66
2022/04/01 08:38:16;;;;;;;10.13;8.15;;;4.80;99.90;;;;;;5096840;28;20035;-65
2022/04/01 08:40:42;;;;;;;8.75;5.60;;;4.80;99.90;;;;;;5090522;28;20024;-65
2022/04/01 08:43:08;;;;;;;10.27;6.57;;;4.60;99.90;;;;;;5090468;28;20039;-66
2022/04/01 08:45:36;;;;;;;10.32;6.70;;;4.70;99.90;;;;;;5085419;28;20350;-68
2022/04/01 08:48:05;;;;;;;10.70;7.63;;;4.80;99.90;;;;;;5091462;28;20031;-66
2022/04/01 08:50:31;;;;;;;11.95;7.15;;;4.90;99.90;;;;;;5091325;28;20023;-68
2022/04/01 08:52:57;;;;;;;10.88;6.22;;;4.90;99.90;;;;;;5070659;28;20496;-66
2022/04/01 08:55:23;;;;;;;10.48;7.28;;;5.00;99.90;;;;;;5072755;28;20032;-68
2022/04/01 08:57:50;;;;;;;10.02;7.20;;;5.00;99.90;;;;;;5075114;28;20028;-65
2022/04/01 09:00:15;;;;;;;16.45;7.28;;;4.90;99.90;;;;;;5095744;28;20034;-64
2022/04/01 09:02:43;;;;;;;8.90;6.43;;;5.00;99.90;;;;;;5095927;28;20040;-65
2022/04/01 09:05:09;;;;;;;11.95;6.38;;;4.80;99.90;;;;;;5094918;28;20032;-65
2022/04/01 09:07:35;;;;;;;15.70;7.10;;;5.10;99.90;;;;;;5093969;28;20028;-71
2022/04/01 09:10:06;;;;;;;8.45;6.60;;;5.40;99.90;;;;;;5095730;28;20068;-67
2022/04/01 09:12:32;;;;;;;9.98;6.00;;;5.40;99.90;;;;;;5094654;28;20039;-66
2022/04/01 09:14:58;;;;;;;10.45;5.95;;;5.20;99.90;;;;;;5095158;28;20382;-64
2022/04/01 09:17:43;;;;;;;11.60;6.72;;;5.10;99.90;;;;;;5094665;28;20032;-64
2022/04/01 09:20:10;;;;;;;12.98;7.93;;;5.20;99.90;;;;;;5086414;28;20441;-65
2022/04/01 09:22:38;;;;;;;9.57;7.28;;;4.90;99.90;;;;;;5092822;28;20554;-66
2022/04/01 09:25:15;;;;;;;8.50;6.53;;;5.00;99.90;;;;;;5094784;28;20035;-66
2022/04/01 09:27:46;;;;;;;10.93;6.03;;;5.00;99.90;;;;;;5091863;28;20166;-65
2022/04/01 09:30:14;;;;;;;9.23;6.72;;;5.10;99.90;;;;;;5086819;28;20055;-64
2022/04/01 09:32:51;;;;;;;7.80;6.45;;;5.00;99.90;;;;;;5085862;28;20485;-65
2022/04/01 09:35:20;;;;;;;9.52;6.85;;;4.70;99.90;;;;;;5087811;28;20473;-64
2022/04/01 09:37:47;;;;;;;10.52;7.40;;;4.90;99.90;;;;;;5088928;28;20066;-66
2022/04/01 09:40:17;;;;;;;11.70;6.07;;;4.60;99.90;;;;;;5083102;28;20056;-65
2022/04/01 09:42:48;;;;;;;9.10;7.20;;;4.60;99.90;;;;;;5069021;28;20053;-65
2022/04/01 09:45:23;;;;;;;14.05;7.50;;;4.50;99.90;;;;;;5055341;28;20386;-64
2022/04/01 09:47:59;;;;;;;8.73;7.00;;;4.50;99.90;;;;;;5051082;28;20040;-65
2022/04/01 09:50:35;;;;;;;10.35;6.20;;;4.30;99.90;;;;;;5074422;28;20052;-65
2022/04/01 09:53:10;;;;;;;10.40;5.85;;;4.40;99.90;;;;;;5054067;28;20103;-65
2022/04/01 09:55:42;;;;;;;11.30;8.02;;;4.50;99.90;;;;;;5052306;28;20033;-69
2022/04/01 09:58:09;;;;;;;10.65;7.20;;;4.50;99.90;;;;;;5050410;28;20032;-63
2022/04/01 10:00:36;;;;;;;10.02;7.18;;;4.70;99.90;;;;;;5074652;28;20031;-65
2022/04/01 10:03:07;;;;;;;10.48;7.28;;;4.80;99.90;;;;;;5073975;28;20440;-64
2022/04/01 10:05:35;;;;;;;15.15;10.23;;;4.80;99.90;;;;;;5056787;28;20444;-64
2022/04/01 10:08:04;;;;;;;14.38;8.82;;;4.90;99.90;;;;;;5050788;28;20025;-69
2022/04/01 10:10:30;;;;;;;8.57;5.97;;;4.70;99.90;;;;;;5052474;28;20032;-66
2022/04/01 10:13:03;;;;;;;13.32;8.57;;;4.50;99.90;;;;;;5037769;28;20043;-65
2022/04/01 10:15:30;;;;;;;12.27;7.50;;;4.50;99.90;;;;;;5055609;28;20031;-64
2022/04/01 10:18:01;;;;;;;7.45;6.65;;;4.70;99.90;;;;;;5055195;28;20090;-66
2022/04/01 10:20:31;;;;;;;12.77;8.07;;;4.80;99.90;;;;;;5074496;28;20031;-64
2022/04/01 10:22:57;;;;;;;11.88;7.78;;;4.80;99.90;;;;;;5054188;28;20297;-66
2022/04/01 10:25:44;;;;;;;8.32;6.95;;;4.90;99.90;;;;;;5073789;28;20427;-66
2022/04/01 10:28:19;;;;;;;10.40;7.13;;;5.00;99.90;;;;;;5056163;28;20039;-66
2022/04/01 10:30:57;;;;;;;10.93;7.03;;;5.10;99.90;;;;;;5073179;28;20021;-65
2022/04/01 10:33:35;;;;;;;8.75;7.13;;;5.10;99.90;;;;;;5073531;28;20063;-66
2022/04/01 10:36:22;;;;;;;18.45;12.27;;;5.10;99.90;;;;;;5073004;28;20069;-65
2022/04/01 10:38:49;;;;;;;17.15;10.48;;;5.10;99.90;;;;;;5056162;28;20043;-63
2022/04/01 10:41:15;;;;;;;8.73;7.28;;;5.00;99.90;;;;;;5054442;28;20029;-63
2022/04/01 10:43:50;;;;;;;9.40;6.45;;;4.90;99.90;;;;;;5084605;28;20052;-67
2022/04/01 10:46:17;;;;;;;8.35;6.63;;;4.80;99.90;;;;;;5092897;28;20028;-63
2022/04/01 10:52:05;;;;;;;9.75;5.68;;;4.80;99.90;;;;;;5082077;28;20035;-64
2022/04/01 10:54:31;;;;;;;6.60;5.70;;;4.70;99.90;;;;;;5091297;28;20024;-65
2022/04/01 10:57:00;;;;;;;7.00;5.63;;;4.60;99.90;;;;;;5089396;28;20107;-65
2022/04/01 10:59:28;;;;;;;9.63;6.55;;;4.80;99.90;;;;;;5091661;28;20462;-64
2022/04/01 11:01:53;;;;;;;9.45;7.38;;;4.90;99.90;;;;;;5092907;28;20042;-65
2022/04/01 11:04:19;;;;;;;7.88;6.65;;;4.90;99.90;;;;;;5093624;28;20036;-64
2022/04/01 11:07:01;;;;;;;6.70;5.25;;;4.90;99.90;;;;;;5082297;28;20046;-64
2022/04/01 11:09:34;;;;;;;7.97;5.20;;;4.90;99.90;;;;;;5076412;28;20055;-63
2022/04/01 11:12:25;;;;;;;7.70;6.07;;;4.90;99.90;;;;;;5071585;28;20040;-66
2022/04/01 11:15:12;;;;;;;7.00;5.50;;;4.90;99.90;;;;;;5087898;28;20024;-64
2022/04/01 11:17:37;;;;;;;7.22;5.60;;;4.80;99.90;;;;;;5073634;28;20032;-64
2022/04/01 11:20:10;;;;;;;8.45;6.13;;;4.90;99.90;;;;;;5088963;28;20086;-64
2022/04/01 11:22:44;;;;;;;7.07;6.38;;;4.90;99.90;;;;;;5080803;28;20040;-65
2022/04/01 11:25:35;;;;;;;10.48;5.93;;;4.90;99.90;;;;;;5093050;28;20356;-65
2022/04/01 11:28:08;;;;;;;8.85;7.38;;;4.90;99.90;;;;;;5090799;28;20035;-67
2022/04/01 11:30:40;;;;;;;9.40;7.60;;;4.70;99.90;;;;;;5088577;28;20485;-67
2022/04/01 11:33:10;;;;;;;10.80;7.35;;;4.80;99.90;;;;;;5090694;28;20067;-65
2022/04/01 11:35:39;;;;;;;9.95;6.25;;;4.50;99.90;;;;;;5090945;28;20028;-65
2022/04/01 11:38:07;;;;;;;11.77;8.05;;;4.70;99.90;;;;;;5092038;28;20032;-63
2022/04/01 11:40:36;;;;;;;10.55;7.97;;;4.80;99.90;;;;;;5091164;28;20514;-65
2022/04/01 11:43:15;;;;;;;15.40;9.73;;;4.90;99.90;;;;;;5090103;28;20176;-65
2022/04/01 11:45:42;;;;;;;8.43;6.78;;;5.00;99.90;;;;;;5091549;28;20476;-65
2022/04/01 11:48:29;;;;;;;11.52;6.70;;;5.00;99.90;;;;;;5091151;28;20020;-65
2022/04/01 11:51:09;;;;;;;12.60;7.63;;;4.90;99.90;;;;;;5090920;28;20027;-68
2022/04/01 11:53:42;;;;;;;10.13;6.45;;;5.10;99.90;;;;;;5092025;28;20044;-70
2022/04/01 11:56:13;;;;;;;8.48;5.75;;;5.10;99.90;;;;;;5092668;28;20028;-66
2022/04/01 11:58:48;;;;;;;7.25;5.97;;;4.80;99.90;;;;;;5093106;28;20469;-66
2022/04/01 12:01:16;;;;;;;8.15;6.45;;;4.60;99.90;;;;;;5091869;28;20020;-65
2022/04/01 12:03:41;;;;;;;9.68;7.18;;;4.70;99.90;;;;;;5092426;28;20378;-65
2022/04/01 12:08:52;;;;;;;8.70;6.85;;;4.80;99.90;;;;;;5095435;28;20035;-66
2022/04/01 12:11:18;;;;;;;9.43;7.38;;;5.00;99.90;;;;;;5095977;28;20024;-65
2022/04/01 12:13:53;;;;;;;7.80;6.75;;;4.80;99.90;;;;;;5094996;28;20131;-66
2022/04/01 12:16:21;;;;;;;8.57;7.05;;;4.90;99.90;;;;;;5095121;28;20024;-66
2022/04/01 12:18:49;;;;;;;9.40;6.25;;;5.00;99.90;;;;;;5094023;28;20020;-67
2022/04/01 12:21:22;;;;;;;6.93;5.65;;;5.10;99.90;;;;;;5095579;28;20032;-66
2022/04/01 12:23:49;;;;;;;8.30;7.03;;;4.70;99.90;;;;;;5092026;28;20028;-66
2022/04/01 12:26:25;;;;;;;14.50;7.68;;;4.80;99.90;;;;;;5092807;28;20066;-66
2022/04/01 12:28:52;;;;;;;7.53;6.25;;;4.80;99.90;;;;;;5094118;28;20035;-66
2022/04/01 12:31:26;;;;;;;13.98;7.68;;;4.80;99.90;;;;;;5094739;28;20024;-66
2022/04/01 12:33:54;;;;;;;9.20;6.80;;;4.70;99.90;;;;;;5093325;28;20028;-69
2022/04/01 12:36:38;;;;;;;7.25;5.95;;;4.60;99.90;;;;;;5094000;28;20054;-66
2022/04/01 12:39:06;;;;;;;8.73;5.43;;;4.60;99.90;;;;;;5092846;28;20497;-64
2022/04/01 12:41:33;;;;;;;7.55;5.53;;;4.60;99.90;;;;;;5093798;28;20150;-66
2022/04/01 12:44:00;;;;;;;7.32;5.75;;;4.60;99.90;;;;;;5091796;28;20044;-70
2022/04/01 12:46:32;;;;;;;6.80;5.65;;;4.60;99.90;;;;;;5096094;28;20032;-65
2022/04/01 12:49:14;;;;;;;8.90;5.90;;;4.50;99.90;;;;;;5096658;28;20452;-66
2022/04/01 12:51:49;;;;;;;8.85;5.60;;;4.50;99.90;;;;;;5097899;28;20501;-68
2022/04/01 12:54:23;;;;;;;7.25;5.40;;;4.40;99.90;;;;;;5095386;28;20039;-65
2022/04/01 12:56:51;;;;;;;6.90;5.70;;;4.40;99.90;;;;;;5095889;28;20086;-66
2022/04/01 12:59:19;;;;;;;11.73;5.32;;;4.40;99.90;;;;;;5086461;28;20020;-67
2022/04/01 13:01:55;;;;;;;8.00;5.85;;;4.50;99.90;;;;;;5075846;28;20157;-64
2022/04/01 13:04:21;;;;;;;7.40;5.00;;;4.50;99.90;;;;;;5075546;28;20037;-66
2022/04/01 13:07:12;;;;;;;7.28;5.88;;;4.60;99.90;;;;;;5081854;28;20039;-63
2022/04/01 13:09:47;;;;;;;6.13;5.13;;;4.40;99.90;;;;;;5083745;28;20358;-66
2022/04/01 13:12:12;;;;;;;7.47;5.15;;;4.50;99.90;;;;;;5086822;28;20489;-67
2022/04/01 13:14:38;;;;;;;6.45;5.28;;;4.40;99.90;;;;;;5085799;28;20047;-65